sensor_id;sensor_type;location;lat;lon;timestamp;pressure;altitude;pressure_sealevel;temperature;humidity
28267;BME280;15525;45.568;5.448;2023-02-17T00:02:02;99390.94;;;8.17;48.83
28267;BME280;15525;45.568;5.448;2023-02-17T00:04:29;99368.38;;;7.95;48.85
28267;BME280;15525;45.568;5.448;2023-02-17T00:06:55;99367.81;;;7.69;49.47
28267;BME280;15525;45.568;5.448;2023-02-17T00:09:20;99372.66;;;7.78;49.79
28267;BME280;15525;45.568;5.448;2023-02-17T00:11:46;99382.75;;;7.94;49.27
28267;BME280;15525;45.568;5.448;2023-02-17T00:14:12;99369.34;;;8.01;49.33
28267;BME280;15525;45.568;5.448;2023-02-17T00:16:38;99379.31;;;8.12;49.23
28267;BME280;15525;45.568;5.448;2023-02-17T00:19:04;99387.88;;;8.14;49.07
28267;BME280;15525;45.568;5.448;2023-02-17T00:21:48;99384.66;;;8.12;48.71
28267;BME280;15525;45.568;5.448;2023-02-17T00:24:14;99387.69;;;8.15;48.66
28267;BME280;15525;45.568;5.448;2023-02-17T00:26:39;99395.03;;;7.95;49.60
28267;BME280;15525;45.568;5.448;2023-02-17T00:29:05;99366.34;;;7.73;49.32
28267;BME280;15525;45.568;5.448;2023-02-17T00:31:30;99367.16;;;7.49;50.32
28267;BME280;15525;45.568;5.448;2023-02-17T00:33:55;99389.16;;;7.62;50.56
28267;BME280;15525;45.568;5.448;2023-02-17T00:36:21;99371.97;;;7.58;50.00
28267;BME280;15525;45.568;5.448;2023-02-17T00:38:47;99391.84;;;7.87;49.74
28267;BME280;15525;45.568;5.448;2023-02-17T00:41:13;99386.22;;;7.95;49.65
28267;BME280;15525;45.568;5.448;2023-02-17T00:43:38;99379.59;;;7.79;50.02
28267;BME280;15525;45.568;5.448;2023-02-17T00:46:04;99380.50;;;7.73;50.05
28267;BME280;15525;45.568;5.448;2023-02-17T00:48:30;99388.06;;;7.70;49.83
28267;BME280;15525;45.568;5.448;2023-02-17T00:50:56;99379.00;;;7.53;50.29
28267;BME280;15525;45.568;5.448;2023-02-17T00:53:22;99387.50;;;7.68;49.86
28267;BME280;15525;45.568;5.448;2023-02-17T00:55:47;99389.84;;;7.58;50.37
28267;BME280;15525;45.568;5.448;2023-02-17T00:58:14;99367.09;;;7.55;49.70
28267;BME280;15525;45.568;5.448;2023-02-17T01:00:39;99367.06;;;7.62;50.09
28267;BME280;15525;45.568;5.448;2023-02-17T01:03:05;99359.28;;;7.60;49.98
28267;BME280;15525;45.568;5.448;2023-02-17T01:05:30;99364.19;;;7.57;49.87
28267;BME280;15525;45.568;5.448;2023-02-17T01:07:56;99344.84;;;7.43;49.57
28267;BME280;15525;45.568;5.448;2023-02-17T01:10:21;99369.38;;;7.52;50.03
28267;BME280;15525;45.568;5.448;2023-02-17T01:12:47;99376.34;;;7.53;49.88
28267;BME280;15525;45.568;5.448;2023-02-17T01:15:12;99383.81;;;7.38;50.30
28267;BME280;15525;45.568;5.448;2023-02-17T01:17:38;99382.19;;;7.37;50.32
28267;BME280;15525;45.568;5.448;2023-02-17T01:20:04;99373.53;;;7.48;50.17
28267;BME280;15525;45.568;5.448;2023-02-17T01:22:30;99390.53;;;7.71;49.35
28267;BME280;15525;45.568;5.448;2023-02-17T01:24:56;99393.19;;;7.71;49.51
28267;BME280;15525;45.568;5.448;2023-02-17T01:27:21;99397.09;;;7.69;49.69
28267;BME280;15525;45.568;5.448;2023-02-17T01:29:47;99378.19;;;7.52;49.54
28267;BME280;15525;45.568;5.448;2023-02-17T01:32:12;99385.19;;;7.47;49.86
28267;BME280;15525;45.568;5.448;2023-02-17T01:34:38;99395.09;;;7.40;49.94
28267;BME280;15525;45.568;5.448;2023-02-17T01:37:03;99374.63;;;7.34;49.86
28267;BME280;15525;45.568;5.448;2023-02-17T01:39:29;99390.97;;;7.44;49.85
28267;BME280;15525;45.568;5.448;2023-02-17T01:41:54;99385.94;;;7.29;50.24
28267;BME280;15525;45.568;5.448;2023-02-17T01:44:22;99383.38;;;7.10;50.53
28267;BME280;15525;45.568;5.448;2023-02-17T01:46:53;99405.88;;;7.14;51.24
28267;BME280;15525;45.568;5.448;2023-02-17T01:49:23;99392.22;;;7.04;51.09
28267;BME280;15525;45.568;5.448;2023-02-17T01:52:04;99396.78;;;7.28;50.96
28267;BME280;15525;45.568;5.448;2023-02-17T01:54:36;99390.25;;;7.24;50.72
28267;BME280;15525;45.568;5.448;2023-02-17T01:57:02;99395.50;;;7.37;50.09
28267;BME280;15525;45.568;5.448;2023-02-17T01:59:28;99395.91;;;7.34;50.32
28267;BME280;15525;45.568;5.448;2023-02-17T02:01:58;99406.66;;;7.27;50.90
28267;BME280;15525;45.568;5.448;2023-02-17T02:04:27;99382.47;;;7.22;50.32
28267;BME280;15525;45.568;5.448;2023-02-17T02:06:54;99387.19;;;7.27;50.39
28267;BME280;15525;45.568;5.448;2023-02-17T02:09:42;99379.97;;;7.03;52.29
28267;BME280;15525;45.568;5.448;2023-02-17T02:14:41;99373.75;;;6.71;51.57
28267;BME280;15525;45.568;5.448;2023-02-17T02:17:15;99393.13;;;6.91;52.06
28267;BME280;15525;45.568;5.448;2023-02-17T02:20:22;99385.56;;;6.88;52.88
28267;BME280;15525;45.568;5.448;2023-02-17T02:37:03;99377.28;;;7.03;50.93
28267;BME280;15525;45.568;5.448;2023-02-17T02:39:36;99391.16;;;7.11;50.55
28267;BME280;15525;45.568;5.448;2023-02-17T02:42:10;99376.50;;;6.96;51.10
28267;BME280;15525;45.568;5.448;2023-02-17T02:44:37;99382.66;;;6.96;50.74
28267;BME280;15525;45.568;5.448;2023-02-17T02:47:51;99396.31;;;7.06;50.98
28267;BME280;15525;45.568;5.448;2023-02-17T02:49:52;99377.69;;;7.06;50.80
28267;BME280;15525;45.568;5.448;2023-02-17T03:00:40;99361.53;;;7.01;51.23
28267;BME280;15525;45.568;5.448;2023-02-17T03:05:56;99385.91;;;6.98;51.46
28267;BME280;15525;45.568;5.448;2023-02-17T03:10:53;99383.69;;;6.95;51.06
28267;BME280;15525;45.568;5.448;2023-02-17T03:13:19;99361.97;;;6.92;50.41
28267;BME280;15525;45.568;5.448;2023-02-17T03:15:47;99384.41;;;7.09;50.25
28267;BME280;15525;45.568;5.448;2023-02-17T03:18:13;99370.78;;;6.92;50.61
28267;BME280;15525;45.568;5.448;2023-02-17T03:20:44;99378.59;;;6.87;51.50
28267;BME280;15525;45.568;5.448;2023-02-17T03:23:13;99387.22;;;6.83;51.93
28267;BME280;15525;45.568;5.448;2023-02-17T03:25:39;99381.28;;;6.81;51.01
28267;BME280;15525;45.568;5.448;2023-02-17T03:28:04;99376.59;;;6.76;51.22
28267;BME280;15525;45.568;5.448;2023-02-17T03:30:30;99300.09;;;6.21;51.23
28267;BME280;15525;45.568;5.448;2023-02-17T03:32:55;99369.69;;;6.62;51.15
28267;BME280;15525;45.568;5.448;2023-02-17T03:35:20;99354.22;;;6.53;51.79
28267;BME280;15525;45.568;5.448;2023-02-17T03:37:46;99370.31;;;6.64;51.40
28267;BME280;15525;45.568;5.448;2023-02-17T03:40:11;99374.78;;;6.70;51.75
28267;BME280;15525;45.568;5.448;2023-02-17T03:42:37;99369.88;;;6.67;51.68
28267;BME280;15525;45.568;5.448;2023-02-17T03:45:02;99352.09;;;6.68;51.23
28267;BME280;15525;45.568;5.448;2023-02-17T03:47:28;99378.28;;;6.71;51.47
28267;BME280;15525;45.568;5.448;2023-02-17T03:49:53;99368.91;;;6.62;51.79
28267;BME280;15525;45.568;5.448;2023-02-17T03:52:19;99373.97;;;6.70;51.68
28267;BME280;15525;45.568;5.448;2023-02-17T03:54:44;99369.91;;;6.61;51.42
28267;BME280;15525;45.568;5.448;2023-02-17T03:57:10;99359.91;;;6.56;51.65
28267;BME280;15525;45.568;5.448;2023-02-17T03:59:36;99365.25;;;6.50;51.83
28267;BME280;15525;45.568;5.448;2023-02-17T04:02:02;99381.84;;;6.45;51.98
28267;BME280;15525;45.568;5.448;2023-02-17T04:04:28;99372.25;;;6.38;52.35
28267;BME280;15525;45.568;5.448;2023-02-17T04:06:53;99372.63;;;6.54;52.10
28267;BME280;15525;45.568;5.448;2023-02-17T04:09:19;99372.69;;;6.35;52.68
28267;BME280;15525;45.568;5.448;2023-02-17T04:11:44;99378.59;;;6.37;52.48
28267;BME280;15525;45.568;5.448;2023-02-17T04:14:10;99377.59;;;6.31;52.62
28267;BME280;15525;45.568;5.448;2023-02-17T04:16:35;99390.19;;;6.55;52.33
28267;BME280;15525;45.568;5.448;2023-02-17T04:19:04;99394.25;;;6.64;51.93
28267;BME280;15525;45.568;5.448;2023-02-17T04:21:29;99401.19;;;6.72;51.46
28267;BME280;15525;45.568;5.448;2023-02-17T04:23:55;99396.94;;;6.58;51.97
28267;BME280;15525;45.568;5.448;2023-02-17T04:26:21;99402.06;;;6.53;51.96
28267;BME280;15525;45.568;5.448;2023-02-17T04:28:46;99403.06;;;6.58;51.89
28267;BME280;15525;45.568;5.448;2023-02-17T04:31:12;99387.56;;;6.49;51.53
28267;BME280;15525;45.568;5.448;2023-02-17T04:33:37;99390.00;;;6.57;51.67
28267;BME280;15525;45.568;5.448;2023-02-17T04:36:03;99402.81;;;6.73;51.38
28267;BME280;15525;45.568;5.448;2023-02-17T04:38:30;99398.53;;;6.72;51.17
28267;BME280;15525;45.568;5.448;2023-02-17T04:40:57;99402.00;;;6.72;51.39
28267;BME280;15525;45.568;5.448;2023-02-17T04:43:24;99403.69;;;6.60;51.72
28267;BME280;15525;45.568;5.448;2023-02-17T04:45:51;99384.53;;;6.39;51.83
28267;BME280;15525;45.568;5.448;2023-02-17T04:48:17;99399.22;;;6.48;52.18
28267;BME280;15525;45.568;5.448;2023-02-17T04:50:43;99375.53;;;6.33;52.14
28267;BME280;15525;45.568;5.448;2023-02-17T04:53:08;99401.44;;;6.51;51.67
28267;BME280;15525;45.568;5.448;2023-02-17T04:55:34;99417.22;;;6.46;52.24
28267;BME280;15525;45.568;5.448;2023-02-17T04:57:59;99376.81;;;6.11;52.34
28267;BME280;15525;45.568;5.448;2023-02-17T05:00:25;99412.75;;;6.33;52.47
28267;BME280;15525;45.568;5.448;2023-02-17T05:02:50;99368.22;;;6.22;51.89
28267;BME280;15525;45.568;5.448;2023-02-17T05:05:16;99404.78;;;6.40;51.89
28267;BME280;15525;45.568;5.448;2023-02-17T05:07:46;99420.72;;;6.40;52.06
28267;BME280;15525;45.568;5.448;2023-02-17T05:10:18;99401.28;;;6.33;52.83
28267;BME280;15525;45.568;5.448;2023-02-17T05:12:44;99402.53;;;6.37;51.81
28267;BME280;15525;45.568;5.448;2023-02-17T05:15:10;99386.19;;;6.20;52.43
28267;BME280;15525;45.568;5.448;2023-02-17T05:17:35;99396.44;;;6.23;52.56
28267;BME280;15525;45.568;5.448;2023-02-17T05:20:02;99389.44;;;6.29;52.39
28267;BME280;15525;45.568;5.448;2023-02-17T05:22:28;99404.19;;;6.31;52.39
28267;BME280;15525;45.568;5.448;2023-02-17T05:24:53;99383.53;;;6.27;52.51
28267;BME280;15525;45.568;5.448;2023-02-17T05:27:19;99389.03;;;6.32;52.08
28267;BME280;15525;45.568;5.448;2023-02-17T05:29:44;99390.84;;;6.38;52.33
28267;BME280;15525;45.568;5.448;2023-02-17T05:32:10;99402.28;;;6.51;52.10
28267;BME280;15525;45.568;5.448;2023-02-17T05:34:35;99393.47;;;6.51;51.94
28267;BME280;15525;45.568;5.448;2023-02-17T05:37:01;99393.91;;;6.54;52.11
28267;BME280;15525;45.568;5.448;2023-02-17T05:39:26;99402.84;;;6.66;51.65
28267;BME280;15525;45.568;5.448;2023-02-17T05:41:52;99401.59;;;6.69;52.28
28267;BME280;15525;45.568;5.448;2023-02-17T05:44:17;99395.50;;;6.62;52.21
28267;BME280;15525;45.568;5.448;2023-02-17T05:46:43;99408.81;;;6.62;52.21
28267;BME280;15525;45.568;5.448;2023-02-17T05:49:08;99405.16;;;6.50;52.42
28267;BME280;15525;45.568;5.448;2023-02-17T05:51:34;99398.00;;;6.44;52.79
28267;BME280;15525;45.568;5.448;2023-02-17T05:53:59;99400.44;;;6.52;52.82
28267;BME280;15525;45.568;5.448;2023-02-17T05:56:25;99409.81;;;6.61;52.64
28267;BME280;15525;45.568;5.448;2023-02-17T05:58:51;99409.56;;;6.69;52.73
28267;BME280;15525;45.568;5.448;2023-02-17T06:01:16;99418.00;;;6.66;52.63
28267;BME280;15525;45.568;5.448;2023-02-17T06:03:41;99408.81;;;6.62;52.60
28267;BME280;15525;45.568;5.448;2023-02-17T06:06:07;99421.63;;;6.78;52.58
28267;BME280;15525;45.568;5.448;2023-02-17T06:08:33;99420.81;;;6.77;52.37
28267;BME280;15525;45.568;5.448;2023-02-17T06:10:59;99409.13;;;6.78;52.64
28267;BME280;15525;45.568;5.448;2023-02-17T06:13:24;99401.59;;;6.69;52.27
28267;BME280;15525;45.568;5.448;2023-02-17T06:15:50;99414.25;;;6.80;52.48
28267;BME280;15525;45.568;5.448;2023-02-17T06:18:15;99421.78;;;6.83;52.50
28267;BME280;15525;45.568;5.448;2023-02-17T06:20:41;99408.94;;;6.80;52.48
28267;BME280;15525;45.568;5.448;2023-02-17T06:23:06;99407.28;;;6.79;52.26
28267;BME280;15525;45.568;5.448;2023-02-17T06:25:32;99433.66;;;6.87;52.61
28267;BME280;15525;45.568;5.448;2023-02-17T06:27:57;99432.88;;;6.80;52.47
28267;BME280;15525;45.568;5.448;2023-02-17T06:30:23;99416.59;;;6.57;52.92
28267;BME280;15525;45.568;5.448;2023-02-17T06:32:49;99425.75;;;6.67;52.50
28267;BME280;15525;45.568;5.448;2023-02-17T06:35:14;99433.13;;;6.65;52.85
28267;BME280;15525;45.568;5.448;2023-02-17T06:37:40;99419.69;;;6.47;53.02
28267;BME280;15525;45.568;5.448;2023-02-17T06:40:06;99424.34;;;6.58;52.84
28267;BME280;15525;45.568;5.448;2023-02-17T06:42:32;99428.22;;;6.62;52.71
28267;BME280;15525;45.568;5.448;2023-02-17T06:44:57;99418.66;;;6.48;53.16
28267;BME280;15525;45.568;5.448;2023-02-17T06:47:25;99430.72;;;6.51;53.16
28267;BME280;15525;45.568;5.448;2023-02-17T06:49:50;99431.50;;;6.64;53.13
28267;BME280;15525;45.568;5.448;2023-02-17T06:52:16;99430.84;;;6.75;52.94
28267;BME280;15525;45.568;5.448;2023-02-17T06:54:41;99426.72;;;6.86;52.64
28267;BME280;15525;45.568;5.448;2023-02-17T06:57:07;99416.75;;;6.75;52.42
28267;BME280;15525;45.568;5.448;2023-02-17T06:59:32;99443.28;;;6.88;52.39
28267;BME280;15525;45.568;5.448;2023-02-17T07:01:57;99440.00;;;6.86;52.44
28267;BME280;15525;45.568;5.448;2023-02-17T07:04:23;99445.91;;;6.94;52.67
28267;BME280;15525;45.568;5.448;2023-02-17T07:06:48;99421.63;;;6.71;52.96
28267;BME280;15525;45.568;5.448;2023-02-17T07:09:14;99432.66;;;6.81;52.49
28267;BME280;15525;45.568;5.448;2023-02-17T07:11:40;99458.78;;;7.04;52.51
28267;BME280;15525;45.568;5.448;2023-02-17T07:14:06;99464.50;;;7.07;52.59
28267;BME280;15525;45.568;5.448;2023-02-17T07:16:32;99464.66;;;7.12;52.67
28267;BME280;15525;45.568;5.448;2023-02-17T07:18:57;99397.28;;;6.74;52.43
28267;BME280;15525;45.568;5.448;2023-02-17T07:21:22;99473.38;;;7.32;52.19
28267;BME280;15525;45.568;5.448;2023-02-17T07:23:48;99460.88;;;7.33;51.95
28267;BME280;15525;45.568;5.448;2023-02-17T07:26:14;99457.78;;;7.36;52.29
28267;BME280;15525;45.568;5.448;2023-02-17T07:28:40;99459.84;;;7.34;52.31
28267;BME280;15525;45.568;5.448;2023-02-17T07:31:11;99454.09;;;7.37;52.95
28267;BME280;15525;45.568;5.448;2023-02-17T07:33:36;99453.50;;;7.35;51.86
28267;BME280;15525;45.568;5.448;2023-02-17T07:36:11;99471.84;;;7.49;52.72
28267;BME280;15525;45.568;5.448;2023-02-17T07:38:37;99466.13;;;7.46;52.19
28267;BME280;15525;45.568;5.448;2023-02-17T07:41:09;99475.66;;;7.60;52.32
28267;BME280;15525;45.568;5.448;2023-02-17T07:43:35;99468.03;;;7.70;52.25
28267;BME280;15525;45.568;5.448;2023-02-17T07:46:00;99455.84;;;7.80;51.78
28267;BME280;15525;45.568;5.448;2023-02-17T07:48:26;99471.69;;;8.00;51.56
28267;BME280;15525;45.568;5.448;2023-02-17T07:50:51;99454.13;;;7.92;51.37
28267;BME280;15525;45.568;5.448;2023-02-17T07:53:17;99454.56;;;8.14;51.40
28267;BME280;15525;45.568;5.448;2023-02-17T07:55:42;99480.28;;;8.51;51.00
28267;BME280;15525;45.568;5.448;2023-02-17T07:58:07;99479.22;;;8.76;50.29
28267;BME280;15525;45.568;5.448;2023-02-17T08:00:33;99459.25;;;8.79;50.32
28267;BME280;15525;45.568;5.448;2023-02-17T08:02:58;99486.16;;;9.13;50.32
28267;BME280;15525;45.568;5.448;2023-02-17T08:05:24;99482.19;;;9.34;49.91
28267;BME280;15525;45.568;5.448;2023-02-17T08:07:49;99492.41;;;9.55;49.76
28267;BME280;15525;45.568;5.448;2023-02-17T08:10:36;99469.56;;;9.70;49.06
28267;BME280;15525;45.568;5.448;2023-02-17T08:13:21;99478.97;;;10.02;49.28
28267;BME280;15525;45.568;5.448;2023-02-17T08:15:47;99479.00;;;10.25;48.85
28267;BME280;15525;45.568;5.448;2023-02-17T08:18:12;99461.09;;;10.37;48.57
28267;BME280;15525;45.568;5.448;2023-02-17T08:20:38;99479.81;;;10.72;48.61
28267;BME280;15525;45.568;5.448;2023-02-17T08:23:03;99474.31;;;10.90;48.26
28267;BME280;15525;45.568;5.448;2023-02-17T08:25:33;99465.53;;;11.17;47.90
28267;BME280;15525;45.568;5.448;2023-02-17T08:27:59;99476.69;;;11.54;47.39
28267;BME280;15525;45.568;5.448;2023-02-17T08:30:24;99478.25;;;11.78;46.99
28267;BME280;15525;45.568;5.448;2023-02-17T08:32:50;99470.63;;;12.03;46.17
28267;BME280;15525;45.568;5.448;2023-02-17T08:35:15;99463.41;;;12.20;46.19
28267;BME280;15525;45.568;5.448;2023-02-17T08:37:43;99480.53;;;12.52;45.58
28267;BME280;15525;45.568;5.448;2023-02-17T08:40:09;99478.84;;;12.63;45.65
28267;BME280;15525;45.568;5.448;2023-02-17T08:42:34;99474.47;;;12.78;45.65
28267;BME280;15525;45.568;5.448;2023-02-17T08:45:00;99456.94;;;12.92;45.40
28267;BME280;15525;45.568;5.448;2023-02-17T08:47:25;99448.03;;;13.08;44.98
28267;BME280;15525;45.568;5.448;2023-02-17T08:49:50;99458.69;;;13.25;45.07
28267;BME280;15525;45.568;5.448;2023-02-17T08:52:16;99459.16;;;13.38;44.85
28267;BME280;15525;45.568;5.448;2023-02-17T08:54:41;99450.97;;;13.81;44.24
28267;BME280;15525;45.568;5.448;2023-02-17T08:57:07;99454.19;;;14.10;43.44
28267;BME280;15525;45.568;5.448;2023-02-17T08:59:32;99456.03;;;14.36;42.94
28267;BME280;15525;45.568;5.448;2023-02-17T09:01:58;99466.09;;;14.50;42.74
28267;BME280;15525;45.568;5.448;2023-02-17T09:04:23;99462.13;;;14.63;42.66
28267;BME280;15525;45.568;5.448;2023-02-17T09:06:51;99461.72;;;14.86;41.76
28267;BME280;15525;45.568;5.448;2023-02-17T09:09:20;99460.53;;;15.13;41.32
28267;BME280;15525;45.568;5.448;2023-02-17T09:11:47;99457.34;;;15.26;40.88
28267;BME280;15525;45.568;5.448;2023-02-17T09:14:13;99467.06;;;15.32;41.31
28267;BME280;15525;45.568;5.448;2023-02-17T09:16:39;99468.66;;;15.23;41.12
28267;BME280;15525;45.568;5.448;2023-02-17T09:19:05;99481.72;;;15.41;40.08
28267;BME280;15525;45.568;5.448;2023-02-17T09:21:30;99470.09;;;15.46;40.28
28267;BME280;15525;45.568;5.448;2023-02-17T09:23:56;99459.66;;;15.64;39.36
28267;BME280;15525;45.568;5.448;2023-02-17T09:26:21;99483.97;;;15.79;39.11
28267;BME280;15525;45.568;5.448;2023-02-17T09:28:47;99479.41;;;15.90;39.38
28267;BME280;15525;45.568;5.448;2023-02-17T09:31:14;99479.72;;;16.13;38.67
28267;BME280;15525;45.568;5.448;2023-02-17T09:33:41;99477.53;;;16.15;39.05
28267;BME280;15525;45.568;5.448;2023-02-17T09:36:09;99488.06;;;16.12;38.51
28267;BME280;15525;45.568;5.448;2023-02-17T09:38:36;99471.59;;;16.03;38.31
28267;BME280;15525;45.568;5.448;2023-02-17T09:41:15;99482.66;;;16.22;37.58
28267;BME280;15525;45.568;5.448;2023-02-17T09:43:41;99472.66;;;16.37;38.25
28267;BME280;15525;45.568;5.448;2023-02-17T09:48:51;99483.22;;;16.59;37.23
28267;BME280;15525;45.568;5.448;2023-02-17T09:51:28;99489.47;;;16.54;36.19
28267;BME280;15525;45.568;5.448;2023-02-17T09:54:11;99487.78;;;16.78;36.64
28267;BME280;15525;45.568;5.448;2023-02-17T09:56:40;99496.38;;;17.05;37.41
28267;BME280;15525;45.568;5.448;2023-02-17T10:01:59;99493.00;;;17.38;36.99
28267;BME280;15525;45.568;5.448;2023-02-17T10:04:36;99473.25;;;17.38;36.00
28267;BME280;15525;45.568;5.448;2023-02-17T10:07:12;99496.25;;;17.50;35.58
28267;BME280;15525;45.568;5.448;2023-02-17T10:09:46;99486.16;;;17.66;35.67
28267;BME280;15525;45.568;5.448;2023-02-17T10:12:24;99497.97;;;17.85;35.73
28267;BME280;15525;45.568;5.448;2023-02-17T10:14:54;99485.25;;;17.80;35.71
28267;BME280;15525;45.568;5.448;2023-02-17T10:17:34;99500.75;;;18.08;34.53
28267;BME280;15525;45.568;5.448;2023-02-17T10:20:10;99499.38;;;18.16;34.45
28267;BME280;15525;45.568;5.448;2023-02-17T10:22:37;99500.06;;;18.36;35.02
28267;BME280;15525;45.568;5.448;2023-02-17T10:25:14;99482.22;;;18.25;33.16
28267;BME280;15525;45.568;5.448;2023-02-17T10:35:44;99484.06;;;18.63;31.38
28267;BME280;15525;45.568;5.448;2023-02-17T10:40:40;99482.03;;;19.02;33.47
28267;BME280;15525;45.568;5.448;2023-02-17T10:43:09;99475.25;;;19.28;33.04
28267;BME280;15525;45.568;5.448;2023-02-17T10:45:45;99477.38;;;19.08;31.25
28267;BME280;15525;45.568;5.448;2023-02-17T10:48:20;99478.81;;;19.47;31.80
28267;BME280;15525;45.568;5.448;2023-02-17T10:50:47;99496.16;;;19.51;32.50
28267;BME280;15525;45.568;5.448;2023-02-17T10:53:18;99493.88;;;19.58;30.66
28267;BME280;15525;45.568;5.448;2023-02-17T11:01:03;99487.50;;;19.68;32.38
28267;BME280;15525;45.568;5.448;2023-02-17T11:03:32;99476.34;;;19.69;32.36
28267;BME280;15525;45.568;5.448;2023-02-17T11:06:00;99485.59;;;20.05;31.03
28267;BME280;15525;45.568;5.448;2023-02-17T11:08:30;99488.44;;;20.32;31.54
28267;BME280;15525;45.568;5.448;2023-02-17T11:11:03;99472.78;;;20.43;30.69
28267;BME280;15525;45.568;5.448;2023-02-17T11:15:59;99465.31;;;19.42;32.48
28267;BME280;15525;45.568;5.448;2023-02-17T11:18:28;99477.31;;;19.13;32.69
28267;BME280;15525;45.568;5.448;2023-02-17T11:21:05;99479.88;;;19.28;31.15
28267;BME280;15525;45.568;5.448;2023-02-17T11:23:30;99475.09;;;19.80;32.26
28267;BME280;15525;45.568;5.448;2023-02-17T11:26:08;99471.72;;;20.25;31.14
28267;BME280;15525;45.568;5.448;2023-02-17T11:28:34;99472.00;;;20.24;31.75
28267;BME280;15525;45.568;5.448;2023-02-17T11:31:00;99447.16;;;20.30;31.21
28267;BME280;15525;45.568;5.448;2023-02-17T11:33:38;99458.00;;;20.49;30.81
28267;BME280;15525;45.568;5.448;2023-02-17T11:36:05;99450.13;;;20.47;31.25
28267;BME280;15525;45.568;5.448;2023-02-17T11:41:04;99450.53;;;21.27;30.86
28267;BME280;15525;45.568;5.448;2023-02-17T11:43:32;99454.16;;;21.23;30.73
28267;BME280;15525;45.568;5.448;2023-02-17T11:46:07;99445.56;;;21.43;29.97
28267;BME280;15525;45.568;5.448;2023-02-17T11:51:21;99436.13;;;21.62;29.50
28267;BME280;15525;45.568;5.448;2023-02-17T11:53:56;99425.94;;;21.54;30.18
28267;BME280;15525;45.568;5.448;2023-02-17T11:56:32;99430.38;;;21.99;29.75
28267;BME280;15525;45.568;5.448;2023-02-17T12:04:24;99405.50;;;21.79;29.35
28267;BME280;15525;45.568;5.448;2023-02-17T12:12:09;99400.69;;;22.72;29.74
28267;BME280;15525;45.568;5.448;2023-02-17T12:17:51;99398.81;;;23.20;27.91
28267;BME280;15525;45.568;5.448;2023-02-17T12:26:40;99409.97;;;23.02;29.68
28267;BME280;15525;45.568;5.448;2023-02-17T12:34:27;99385.72;;;22.70;30.20
28267;BME280;15525;45.568;5.448;2023-02-17T12:36:55;99383.38;;;22.77;30.72
28267;BME280;15525;45.568;5.448;2023-02-17T12:39:44;99382.25;;;22.78;30.15
28267;BME280;15525;45.568;5.448;2023-02-17T12:42:46;99370.69;;;22.81;30.28
28267;BME280;15525;45.568;5.448;2023-02-17T12:45:19;99383.75;;;23.01;30.61
28267;BME280;15525;45.568;5.448;2023-02-17T12:48:01;99380.47;;;22.73;30.82
28267;BME280;15525;45.568;5.448;2023-02-17T12:50:49;99349.84;;;22.02;30.90
28267;BME280;15525;45.568;5.448;2023-02-17T12:53:27;99369.31;;;22.31;31.45
28267;BME280;15525;45.568;5.448;2023-02-17T12:55:59;99371.78;;;22.80;31.18
28267;BME280;15525;45.568;5.448;2023-02-17T12:58:28;99359.94;;;22.93;30.97
28267;BME280;15525;45.568;5.448;2023-02-17T13:01:10;99348.19;;;22.75;30.31
28267;BME280;15525;45.568;5.448;2023-02-17T13:03:38;99346.50;;;22.57;31.26
28267;BME280;15525;45.568;5.448;2023-02-17T13:06:22;99373.66;;;23.01;30.59
28267;BME280;15525;45.568;5.448;2023-02-17T13:09:35;99360.81;;;23.10;30.88
28267;BME280;15525;45.568;5.448;2023-02-17T13:11:41;99359.19;;;23.09;30.95
28267;BME280;15525;45.568;5.448;2023-02-17T13:16:47;99337.72;;;23.42;30.45
28267;BME280;15525;45.568;5.448;2023-02-17T13:19:14;99348.50;;;23.47;30.51
28267;BME280;15525;45.568;5.448;2023-02-17T13:21:52;99356.38;;;23.31;30.33
28267;BME280;15525;45.568;5.448;2023-02-17T13:26:56;99354.06;;;23.16;30.81
28267;BME280;15525;45.568;5.448;2023-02-17T13:32:01;99348.00;;;23.62;30.29
28267;BME280;15525;45.568;5.448;2023-02-17T13:34:37;99353.25;;;23.16;30.53
28267;BME280;15525;45.568;5.448;2023-02-17T13:42:53;99333.38;;;24.09;29.63
28267;BME280;15525;45.568;5.448;2023-02-17T13:45:24;99334.16;;;24.09;29.87
28267;BME280;15525;45.568;5.448;2023-02-17T13:47:53;99328.72;;;23.67;30.35
28267;BME280;15525;45.568;5.448;2023-02-17T13:50:26;99346.09;;;24.05;29.83
28267;BME280;15525;45.568;5.448;2023-02-17T13:52:55;99338.53;;;23.93;30.20
28267;BME280;15525;45.568;5.448;2023-02-17T13:55:21;99343.28;;;24.22;29.66
28267;BME280;15525;45.568;5.448;2023-02-17T13:57:58;99338.38;;;23.64;30.04
28267;BME280;15525;45.568;5.448;2023-02-17T14:00:30;99346.22;;;22.67;30.92
28267;BME280;15525;45.568;5.448;2023-02-17T14:02:58;99329.03;;;22.36;31.38
28267;BME280;15525;45.568;5.448;2023-02-17T14:05:35;99272.34;;;21.94;31.65
28267;BME280;15525;45.568;5.448;2023-02-17T14:10:56;99327.94;;;22.37;31.55
28267;BME280;15525;45.568;5.448;2023-02-17T14:13:23;99332.75;;;23.61;30.21
28267;BME280;15525;45.568;5.448;2023-02-17T14:15:57;99318.72;;;23.88;29.91
28267;BME280;15525;45.568;5.448;2023-02-17T14:18:35;99326.88;;;24.22;29.43
28267;BME280;15525;45.568;5.448;2023-02-17T14:21:11;99335.63;;;24.61;29.08
28267;BME280;15525;45.568;5.448;2023-02-17T14:23:50;99343.69;;;23.95;29.76
28267;BME280;15525;45.568;5.448;2023-02-17T14:26:36;99344.97;;;23.46;30.38
28267;BME280;15525;45.568;5.448;2023-02-17T14:29:05;99335.94;;;24.14;29.83
28267;BME280;15525;45.568;5.448;2023-02-17T14:32:00;99335.13;;;23.88;30.12
28267;BME280;15525;45.568;5.448;2023-02-17T14:36:52;99331.78;;;21.84;32.91
28267;BME280;15525;45.568;5.448;2023-02-17T14:39:18;99331.09;;;21.43;33.69
28267;BME280;15525;45.568;5.448;2023-02-17T14:41:43;99333.50;;;22.02;33.26
28267;BME280;15525;45.568;5.448;2023-02-17T14:44:09;99333.88;;;22.09;33.00
28267;BME280;15525;45.568;5.448;2023-02-17T14:46:35;99344.06;;;22.25;32.92
28267;BME280;15525;45.568;5.448;2023-02-17T14:49:01;99342.53;;;21.67;33.51
28267;BME280;15525;45.568;5.448;2023-02-17T14:51:35;99328.28;;;21.48;33.97
28267;BME280;15525;45.568;5.448;2023-02-17T14:54:13;99340.03;;;21.70;34.03
28267;BME280;15525;45.568;5.448;2023-02-17T14:56:43;99343.06;;;21.33;34.69
28267;BME280;15525;45.568;5.448;2023-02-17T14:59:10;99339.47;;;21.11;34.52